Denver, Colorado
Traffic Map
Current Weather Conditions
Denver, Colorado
Broken Clouds
Broken Clouds
75°
Feels Like: 75°
Wind Chill: 75° Ceiling: 22000
Heat Index: 75° Visibility: 70mi
Dew Point: 25° Wind: 7mph
Humidity: 15% Direction: 80° (E)
Pressure: 29.93in Gusts: 0mph
Raw Report DataKBKF 181955Z 08006KT 70SM FEW070 FEW110 BKN220 24/M04 A2993 RMK SLP077
Traffic Incident Summary
Active as of:
Severity:
Category:
InformationThere was an issue retrieving the traffic information for this location. Please try a different location or try again shortly.
Advertisements
At Last! Intellicast now available for iPhone and Android